ペトロパブロフスク・カムチャツキー の空港の天気 - METARとTAF

ペトロパブロフスク・カムチャツキー空港 ( UHPP / PKC ) - ロシア ペトロパブロフスク・カムチャツキー
飛行場実況気象(Metar)
観測時間04/26 01:00 MAGT (04/25 14:00 UTC)
風向・風速静穏 0m/s
視程10km以上
天気現象
なし
気温-1℃
湿度74%
気圧1014hPa
METARUHPP 251400Z 00000MPS 9999 NSC M01/M05 Q1014 R34L/CLRD70 NOSIG RMK QFE757/1009
過去の天気等 Google飛行場航空写真 Wunderground天気予報

過去48時間のMETAR

飛行場予報(TAF)
発表時間: 4/26 00:55 MAGT (4/25 13:55 UTC)
予報対象時間: 26日2時 MAGT ~ 27日8時 MAGT
風向・風速北北西 3m/s 瞬間風速 12m/s
視程10km以上
なし
26日14時 MAGT ~ 26日20時 MAGT に一時的に
風向・風速西南西 3m/s 瞬間風速 12m/s
26日20時 MAGT から
風向・風速北北西 3m/s 瞬間風速 12m/s
視程10km以上
全天の8割程度の積乱雲 雲底高度 760m
26日23時 MAGT ~ 27日2時 MAGT に一時的に
風向・風速南東 5m/s 瞬間風速 15m/s
視程3,100m
天気現象弱いしゅう雪雨 もや
全天の8割程度の雲 雲底高度 340m
全天を覆う積乱雲 雲底高度 610m
27日2時 MAGT から
風向・風速北北西 5m/s 瞬間風速 17m/s
視程3,100m
天気現象弱いしゅう雨 もや
全天の8割程度の雲 雲底高度 340m
全天を覆う積乱雲 雲底高度 610m
27日2時 MAGT ~ 27日8時 MAGT に一時的に
風向・風速東南東 7m/s 瞬間風速 19m/s
視程1,000m
天気現象しゅう雨雪 もや
全天を覆う雲 鉛直視程 90m
TAF UHPP 251355Z 2515/2621 33003G12MPS 9999 NSC
TEMPO 2603/2609 24003G12MPS
FM260900 33003G12MPS 9999 BKN025CB
TEMPO 2612/2615 14005G15MPS 3100 -SHSNRA BR BKN011 OVC020CB
FM261500 33005G17MPS 3100 -SHRA BR BKN011 OVC020CB
TEMPO 2615/2621 12007G19MPS 1000 SHRASN BR VV003